Time;durP1;ratioP1;P1;durP2;ratioP2;P2;SDS_P1;SDS_P2;PMS_P1;PMS_P2;Temp;Humidity;BMP_temperature;BMP_pressure;BME280_temperature;BME280_humidity;BME280_pressure;Samples;Min_cycle;Max_cycle;Signal;HPM_P1;HPM_P2
2023/03/06 00:00:32;;;;;;;4.83;4.03;;;5.50;99.90;;;;;;4996449;28;20337;-63
2023/03/06 00:03:00;;;;;;;5.53;4.03;;;5.40;99.90;;;;;;4996871;28;20167;-65
2023/03/06 00:05:27;;;;;;;4.30;3.53;;;5.40;99.90;;;;;;4993631;28;20183;-63
2023/03/06 00:07:54;;;;;;;4.57;3.40;;;5.30;99.90;;;;;;4996628;28;20203;-65
2023/03/06 00:10:23;;;;;;;3.80;3.27;;;5.20;99.90;;;;;;5003134;28;20187;-65
2023/03/06 00:12:57;;;;;;;4.10;3.40;;;5.10;99.90;;;;;;5016805;28;20248;-65
2023/03/06 00:15:26;;;;;;;3.53;2.90;;;5.00;99.90;;;;;;5003769;28;20211;-62
2023/03/06 00:17:56;;;;;;;4.03;3.07;;;4.90;99.90;;;;;;4993444;28;20266;-63
2023/03/06 00:20:23;;;;;;;3.93;2.60;;;4.80;99.90;;;;;;4994418;28;20191;-64
2023/03/06 00:22:49;;;;;;;3.73;2.80;;;4.80;99.90;;;;;;4997451;28;20176;-63
2023/03/06 00:25:17;;;;;;;3.20;2.60;;;4.70;99.90;;;;;;4996677;28;20171;-66
2023/03/06 00:27:46;;;;;;;2.73;2.33;;;4.60;99.90;;;;;;4992944;28;20211;-61
2023/03/06 00:30:15;;;;;;;2.80;2.37;;;4.60;99.90;;;;;;4985542;28;20427;-64
2023/03/06 00:32:41;;;;;;;3.43;2.83;;;4.50;99.90;;;;;;5008979;28;20179;-64
2023/03/06 00:35:09;;;;;;;2.67;2.43;;;4.50;99.90;;;;;;4999512;28;20206;-65
2023/03/06 00:37:35;;;;;;;3.07;2.63;;;4.50;99.90;;;;;;4996587;28;20274;-63
2023/03/06 00:40:03;;;;;;;3.63;2.90;;;4.50;99.90;;;;;;4995375;28;20246;-64
2023/03/06 00:42:30;;;;;;;3.17;2.17;;;4.50;99.90;;;;;;4994971;28;20202;-62
2023/03/06 00:44:56;;;;;;;4.23;3.00;;;4.50;99.90;;;;;;4995367;28;20191;-63
2023/03/06 00:47:22;;;;;;;4.40;2.90;;;4.50;99.90;;;;;;4998768;28;20318;-62
2023/03/06 00:49:50;;;;;;;3.33;2.77;;;4.50;99.90;;;;;;4994297;28;20272;-65
2023/03/06 00:52:17;;;;;;;3.10;2.43;;;4.50;99.90;;;;;;5001303;28;20257;-64
2023/03/06 00:54:43;;;;;;;4.73;2.90;;;4.50;99.90;;;;;;4995455;28;20621;-64
2023/03/06 00:57:12;;;;;;;4.67;3.23;;;4.50;99.90;;;;;;4995544;28;20195;-65
2023/03/06 00:59:40;;;;;;;4.13;3.10;;;4.50;99.90;;;;;;4993052;28;20187;-64
2023/03/06 01:02:06;;;;;;;3.43;3.10;;;4.60;99.90;;;;;;4996326;28;20179;-65
2023/03/06 01:04:34;;;;;;;4.47;3.40;;;4.60;99.90;;;;;;4999611;28;20293;-67
2023/03/06 01:07:03;;;;;;;3.80;2.87;;;4.60;99.90;;;;;;4992819;28;20180;-65
2023/03/06 01:09:28;;;;;;;3.57;3.20;;;4.60;99.90;;;;;;4996332;28;20214;-65
2023/03/06 01:11:56;;;;;;;3.90;3.30;;;4.60;99.90;;;;;;4992277;28;20224;-65
2023/03/06 01:14:25;;;;;;;4.40;3.27;;;4.60;99.90;;;;;;4979971;28;20206;-65
2023/03/06 01:16:50;;;;;;;4.20;3.47;;;4.70;99.90;;;;;;4991421;28;20258;-65
2023/03/06 01:19:17;;;;;;;4.40;3.67;;;4.70;99.90;;;;;;4993978;28;20206;-65
2023/03/06 01:21:42;;;;;;;4.43;3.53;;;4.80;99.90;;;;;;4991599;28;20195;-65
2023/03/06 01:24:08;;;;;;;5.57;3.67;;;4.70;99.90;;;;;;4991783;28;20195;-65
2023/03/06 01:26:34;;;;;;;4.77;3.77;;;4.70;99.90;;;;;;4982658;28;20203;-65
2023/03/06 01:29:02;;;;;;;5.77;4.00;;;4.80;99.90;;;;;;4993486;28;20266;-63
2023/03/06 01:31:28;;;;;;;6.20;3.80;;;4.70;99.90;;;;;;4992748;28;20226;-65
2023/03/06 01:33:54;;;;;;;4.97;3.93;;;4.80;99.90;;;;;;4993483;28;20233;-65
2023/03/06 01:36:19;;;;;;;5.70;4.57;;;4.80;99.90;;;;;;4993099;28;20180;-65
2023/03/06 01:38:47;;;;;;;5.73;4.27;;;4.80;99.90;;;;;;4993267;28;20199;-65
2023/03/06 01:41:14;;;;;;;4.90;4.03;;;4.80;99.90;;;;;;4994509;28;20176;-65
2023/03/06 01:43:43;;;;;;;5.53;4.37;;;4.80;99.90;;;;;;4993342;28;20187;-65
2023/03/06 01:46:32;;;;;;;6.00;4.60;;;4.90;99.90;;;;;;4985078;28;20232;-65
2023/03/06 01:49:24;;;;;;;5.80;4.50;;;4.90;99.90;;;;;;5008284;28;20183;-65
2023/03/06 01:51:52;;;;;;;4.97;3.90;;;4.90;99.90;;;;;;4993152;28;20203;-63
2023/03/06 01:54:32;;;;;;;4.83;4.13;;;4.90;99.90;;;;;;4984775;28;20204;-62
2023/03/06 01:57:10;;;;;;;6.80;4.53;;;4.90;99.90;;;;;;4992132;28;20235;-65
2023/03/06 01:59:39;;;;;;;6.30;4.47;;;4.90;99.90;;;;;;4995080;28;20195;-65
2023/03/06 02:02:12;;;;;;;5.13;4.30;;;4.90;99.90;;;;;;4989697;28;20172;-65
2023/03/06 02:04:41;;;;;;;7.00;4.90;;;4.90;99.90;;;;;;4990423;28;20183;-65
2023/03/06 02:07:08;;;;;;;6.27;4.60;;;4.90;99.90;;;;;;5002793;28;20458;-64
2023/03/06 02:09:35;;;;;;;6.10;4.90;;;4.90;99.90;;;;;;4995497;28;20254;-65
2023/03/06 02:12:05;;;;;;;5.17;4.33;;;4.90;99.90;;;;;;4991699;28;20179;-65
2023/03/06 02:14:30;;;;;;;5.10;4.37;;;4.90;99.90;;;;;;4994863;28;20219;-67
2023/03/06 02:16:58;;;;;;;5.83;4.83;;;4.90;99.90;;;;;;5003161;28;20175;-65
2023/03/06 02:19:30;;;;;;;5.73;4.53;;;4.90;99.90;;;;;;4995148;28;20182;-65
2023/03/06 02:21:56;;;;;;;5.87;4.50;;;4.90;99.90;;;;;;4993125;28;20188;-65
2023/03/06 02:24:29;;;;;;;6.30;4.40;;;4.90;99.90;;;;;;4995526;28;20194;-65
2023/03/06 02:26:56;;;;;;;5.47;4.50;;;4.90;99.90;;;;;;5011359;28;20183;-65
2023/03/06 02:29:28;;;;;;;6.07;4.43;;;5.00;99.90;;;;;;4995000;28;20241;-65
2023/03/06 02:31:54;;;;;;;4.97;4.13;;;5.00;99.90;;;;;;4997695;28;20183;-65
2023/03/06 02:34:19;;;;;;;6.13;4.83;;;5.00;99.90;;;;;;4995693;28;20454;-63
2023/03/06 02:36:49;;;;;;;5.87;4.67;;;5.00;99.90;;;;;;5002077;28;20318;-66
2023/03/06 02:39:20;;;;;;;5.73;4.47;;;5.00;99.90;;;;;;4989920;28;20171;-66
2023/03/06 02:41:46;;;;;;;5.70;4.27;;;5.00;99.90;;;;;;4993341;28;21310;-65
2023/03/06 02:44:12;;;;;;;6.97;4.87;;;5.00;99.90;;;;;;4992350;28;20266;-65
2023/03/06 02:46:40;;;;;;;6.13;4.50;;;5.00;99.90;;;;;;4990112;28;20233;-65
2023/03/06 02:49:05;;;;;;;6.73;5.20;;;5.10;99.90;;;;;;5005666;28;20298;-64
2023/03/06 02:51:31;;;;;;;6.83;5.03;;;5.00;99.90;;;;;;4993623;28;20281;-64
2023/03/06 02:53:56;;;;;;;6.53;5.00;;;5.00;99.90;;;;;;4992923;28;20203;-63
2023/03/06 02:56:22;;;;;;;6.13;4.83;;;5.00;99.90;;;;;;4993474;28;20203;-63
2023/03/06 02:58:50;;;;;;;7.00;5.03;;;5.00;99.90;;;;;;4995310;28;20187;-63
2023/03/06 03:01:19;;;;;;;5.43;4.63;;;5.00;99.90;;;;;;4997058;28;20187;-63
2023/03/06 03:03:47;;;;;;;5.63;4.83;;;5.10;99.90;;;;;;4993957;28;20204;-66
2023/03/06 03:06:15;;;;;;;5.80;4.77;;;5.00;99.90;;;;;;4994089;28;20221;-63
2023/03/06 03:08:41;;;;;;;5.67;4.93;;;5.00;99.90;;;;;;4999179;28;20213;-65
2023/03/06 03:11:08;;;;;;;6.30;4.83;;;5.00;99.90;;;;;;4993695;28;20455;-64
2023/03/06 03:13:36;;;;;;;6.73;5.27;;;5.00;99.90;;;;;;4993754;28;20187;-64
2023/03/06 03:16:06;;;;;;;7.83;4.83;;;5.00;99.90;;;;;;4991177;28;20453;-62
2023/03/06 03:18:32;;;;;;;6.97;5.27;;;5.00;99.90;;;;;;4984035;28;20249;-61
2023/03/06 03:20:58;;;;;;;6.20;4.63;;;5.00;99.90;;;;;;4992023;28;20226;-64
2023/03/06 03:23:24;;;;;;;6.30;5.00;;;5.10;99.90;;;;;;4992546;28;20194;-64
2023/03/06 03:25:52;;;;;;;6.67;4.33;;;5.00;99.90;;;;;;4994791;28;20211;-63
2023/03/06 03:28:20;;;;;;;8.37;5.73;;;5.00;99.90;;;;;;4993990;28;20270;-65
2023/03/06 03:30:46;;;;;;;6.37;5.30;;;5.00;99.90;;;;;;4994189;28;20179;-64
2023/03/06 03:33:11;;;;;;;5.93;4.77;;;5.00;99.90;;;;;;4994349;28;20257;-64
2023/03/06 03:35:39;;;;;;;6.93;5.53;;;5.00;99.90;;;;;;4993948;28;20239;-64
2023/03/06 03:38:05;;;;;;;7.07;5.23;;;5.00;99.90;;;;;;4993862;28;20244;-63
2023/03/06 03:40:30;;;;;;;8.77;5.83;;;5.00;99.90;;;;;;4990716;28;20243;-64
2023/03/06 03:42:56;;;;;;;7.27;5.53;;;4.90;99.90;;;;;;4996619;28;20183;-63
2023/03/06 03:45:22;;;;;;;6.47;5.33;;;4.90;99.90;;;;;;4995892;28;20325;-64
2023/03/06 03:47:49;;;;;;;7.10;5.20;;;5.00;99.90;;;;;;4995508;28;20218;-64
2023/03/06 03:50:15;;;;;;;7.50;5.47;;;4.90;99.90;;;;;;5002223;28;20198;-64
2023/03/06 03:52:41;;;;;;;6.10;5.13;;;4.90;99.90;;;;;;4996681;28;20195;-64
2023/03/06 03:55:09;;;;;;;7.50;5.37;;;4.90;99.90;;;;;;4997787;28;20207;-67
2023/03/06 03:57:38;;;;;;;7.70;5.43;;;4.90;99.90;;;;;;4997066;28;20187;-64
2023/03/06 04:00:04;;;;;;;7.80;5.90;;;5.00;99.90;;;;;;5010858;28;20237;-65
2023/03/06 04:02:31;;;;;;;7.17;5.67;;;4.90;99.90;;;;;;4997468;28;20187;-64
2023/03/06 04:04:57;;;;;;;8.07;6.23;;;4.90;99.90;;;;;;4994187;28;20183;-64
2023/03/06 04:07:22;;;;;;;7.97;6.10;;;4.90;99.90;;;;;;4995021;28;20198;-64
2023/03/06 04:09:48;;;;;;;7.63;6.20;;;4.90;99.90;;;;;;4995918;28;20187;-64
2023/03/06 04:12:14;;;;;;;7.47;6.03;;;4.90;99.90;;;;;;4995197;28;20198;-64
2023/03/06 04:14:42;;;;;;;8.23;5.60;;;4.90;99.90;;;;;;4998116;28;20250;-65
2023/03/06 04:17:07;;;;;;;6.70;5.30;;;4.90;99.90;;;;;;4997432;28;20172;-64
2023/03/06 04:19:33;;;;;;;7.90;5.97;;;5.00;99.90;;;;;;4995256;28;20228;-64
2023/03/06 04:22:01;;;;;;;8.63;6.20;;;4.90;99.90;;;;;;4997352;28;20195;-65
2023/03/06 04:24:26;;;;;;;8.03;6.13;;;5.00;99.90;;;;;;4985822;28;20175;-64
2023/03/06 04:26:52;;;;;;;7.57;6.07;;;5.00;99.90;;;;;;4996762;28;20195;-64
2023/03/06 04:29:20;;;;;;;9.23;6.93;;;5.00;99.90;;;;;;4993411;28;20204;-64
2023/03/06 04:31:50;;;;;;;7.53;5.97;;;5.00;99.90;;;;;;4991999;28;20338;-64
2023/03/06 04:34:16;;;;;;;7.57;5.70;;;5.00;99.90;;;;;;5003587;28;20230;-65
2023/03/06 04:36:46;;;;;;;8.87;6.83;;;5.10;99.90;;;;;;4994775;28;20203;-64
2023/03/06 04:39:13;;;;;;;8.60;6.40;;;5.00;99.90;;;;;;4995546;28;20261;-64
2023/03/06 04:41:39;;;;;;;9.50;6.97;;;5.10;99.90;;;;;;4992307;28;20190;-64
2023/03/06 04:44:06;;;;;;;8.90;6.70;;;5.00;99.90;;;;;;4992905;28;20222;-64
2023/03/06 04:46:32;;;;;;;10.20;7.47;;;5.00;99.90;;;;;;4994562;28;20183;-65
2023/03/06 04:49:00;;;;;;;11.80;7.80;;;5.00;99.90;;;;;;4995299;28;20184;-65
2023/03/06 04:51:26;;;;;;;10.50;7.47;;;5.00;99.90;;;;;;4992784;28;20188;-64
2023/03/06 04:53:52;;;;;;;10.90;8.23;;;5.00;99.90;;;;;;4994822;28;20202;-64
2023/03/06 04:56:18;;;;;;;10.60;7.60;;;5.00;99.90;;;;;;5004341;28;20267;-64
2023/03/06 04:58:44;;;;;;;10.37;7.53;;;5.00;99.90;;;;;;5000641;28;20171;-64
2023/03/06 05:01:14;;;;;;;11.67;8.50;;;5.10;99.90;;;;;;4992635;28;20180;-65
2023/03/06 05:03:40;;;;;;;12.23;9.00;;;5.00;99.90;;;;;;4994206;28;20199;-65
2023/03/06 05:06:06;;;;;;;12.27;8.83;;;5.00;99.90;;;;;;4992798;28;20173;-65
2023/03/06 05:08:31;;;;;;;12.23;8.63;;;4.90;99.90;;;;;;4995552;28;20171;-65
2023/03/06 05:11:00;;;;;;;13.47;9.00;;;4.90;99.90;;;;;;4989642;28;20173;-65
2023/03/06 05:13:27;;;;;;;10.87;8.77;;;4.90;99.90;;;;;;4994174;28;20171;-65
2023/03/06 05:15:53;;;;;;;11.00;7.90;;;4.90;99.90;;;;;;4994581;28;20175;-64
2023/03/06 05:18:22;;;;;;;12.50;8.70;;;4.90;99.90;;;;;;4994109;28;20171;-64
2023/03/06 05:20:47;;;;;;;10.93;7.97;;;4.80;99.90;;;;;;4988905;28;20259;-65
2023/03/06 05:23:13;;;;;;;11.97;7.97;;;4.80;99.90;;;;;;4987609;28;20251;-64
2023/03/06 05:25:41;;;;;;;10.63;7.73;;;4.80;99.90;;;;;;4993594;28;20243;-65
2023/03/06 05:28:07;;;;;;;9.43;7.30;;;4.80;99.90;;;;;;4994391;28;20263;-65
2023/03/06 05:30:35;;;;;;;10.90;7.67;;;4.80;99.90;;;;;;4997494;28;20270;-64
2023/03/06 05:33:01;;;;;;;8.87;6.93;;;4.80;99.90;;;;;;4992693;28;20207;-65
2023/03/06 05:35:27;;;;;;;12.40;8.20;;;4.80;99.90;;;;;;4990953;28;20221;-65
2023/03/06 05:37:52;;;;;;;10.33;7.83;;;4.80;99.90;;;;;;4994513;28;20172;-65
2023/03/06 05:40:20;;;;;;;9.77;7.43;;;4.80;99.90;;;;;;4994934;28;20207;-65
2023/03/06 05:42:46;;;;;;;11.77;8.57;;;4.80;99.90;;;;;;4990208;28;20318;-65
2023/03/06 05:45:12;;;;;;;12.40;9.23;;;4.80;99.90;;;;;;4993763;28;20267;-65
2023/03/06 05:47:37;;;;;;;13.17;9.83;;;4.80;99.90;;;;;;4990467;28;20241;-65
2023/03/06 05:50:04;;;;;;;10.53;7.93;;;4.80;99.90;;;;;;4994881;28;20187;-65
2023/03/06 05:52:29;;;;;;;14.00;9.00;;;4.80;99.90;;;;;;4992578;28;20210;-64
2023/03/06 05:54:55;;;;;;;13.80;9.50;;;4.80;99.90;;;;;;4993941;28;20211;-64
2023/03/06 05:57:22;;;;;;;14.90;10.57;;;4.80;99.90;;;;;;4994315;28;20175;-65
2023/03/06 05:59:51;;;;;;;14.40;9.97;;;4.90;99.90;;;;;;4999440;28;20179;-64
2023/03/06 06:02:19;;;;;;;14.07;10.47;;;4.90;99.90;;;;;;4989120;28;20180;-65
2023/03/06 06:04:45;;;;;;;13.33;9.93;;;4.90;99.90;;;;;;4991989;28;20190;-63
2023/03/06 06:07:15;;;;;;;13.50;9.93;;;4.90;99.90;;;;;;4993554;28;20191;-64
2023/03/06 06:09:44;;;;;;;14.73;9.83;;;4.90;99.90;;;;;;4993167;28;20208;-64
2023/03/06 06:12:10;;;;;;;13.13;9.73;;;4.90;99.90;;;;;;4999268;28;20256;-63
2023/03/06 06:14:36;;;;;;;15.50;10.87;;;4.90;99.90;;;;;;4994184;28;20207;-64
2023/03/06 06:17:01;;;;;;;15.43;9.63;;;4.90;99.90;;;;;;4995621;28;20194;-64
2023/03/06 06:19:31;;;;;;;13.73;10.30;;;5.00;99.90;;;;;;4993186;28;20217;-64
2023/03/06 06:21:56;;;;;;;16.33;11.10;;;4.90;99.90;;;;;;4994341;28;20286;-66
2023/03/06 06:24:25;;;;;;;13.37;9.40;;;4.90;99.90;;;;;;5010730;28;20213;-63
2023/03/06 06:26:52;;;;;;;18.80;10.10;;;5.00;99.90;;;;;;4994794;28;20180;-64
2023/03/06 06:29:20;;;;;;;14.47;10.07;;;5.00;99.90;;;;;;4994910;28;20198;-63
2023/03/06 06:31:49;;;;;;;14.30;10.53;;;5.00;99.90;;;;;;5011427;28;20435;-64
2023/03/06 06:34:15;;;;;;;12.73;9.33;;;5.00;99.90;;;;;;5012977;28;20214;-65
2023/03/06 06:36:45;;;;;;;15.80;10.77;;;5.00;99.90;;;;;;4999334;28;20208;-65
2023/03/06 06:39:15;;;;;;;13.67;9.80;;;5.00;99.90;;;;;;4994508;28;20179;-64
2023/03/06 06:41:43;;;;;;;13.53;9.87;;;5.10;99.90;;;;;;5001087;28;20574;-64
2023/03/06 06:44:14;;;;;;;13.80;9.80;;;5.00;99.90;;;;;;4989247;28;20210;-64
2023/03/06 06:46:42;;;;;;;15.97;11.30;;;5.10;99.90;;;;;;4991545;28;20187;-64
2023/03/06 06:49:08;;;;;;;16.30;11.87;;;5.10;99.90;;;;;;4993458;28;20191;-63
2023/03/06 06:51:34;;;;;;;15.10;10.93;;;5.10;99.90;;;;;;4994068;28;20229;-63
2023/03/06 06:54:00;;;;;;;16.70;11.87;;;5.10;99.90;;;;;;4992755;28;20305;-63
2023/03/06 06:56:28;;;;;;;16.77;11.60;;;5.10;99.90;;;;;;4993271;28;20176;-63
2023/03/06 06:58:55;;;;;;;15.40;11.27;;;5.10;99.90;;;;;;4993742;28;20214;-64
2023/03/06 07:01:23;;;;;;;18.83;13.30;;;5.10;99.90;;;;;;4992340;28;20180;-63
2023/03/06 07:03:49;;;;;;;14.67;11.57;;;5.10;99.90;;;;;;4996087;28;20180;-64
2023/03/06 07:06:17;;;;;;;15.03;11.27;;;5.10;99.90;;;;;;4990000;28;20198;-63
2023/03/06 07:08:45;;;;;;;17.23;11.97;;;5.10;99.90;;;;;;4993368;28;20187;-63
2023/03/06 07:11:16;;;;;;;18.53;12.23;;;5.10;99.90;;;;;;4992070;28;20279;-63
2023/03/06 07:13:44;;;;;;;18.10;13.37;;;5.10;99.90;;;;;;4993496;28;20218;-63
2023/03/06 07:16:10;;;;;;;18.33;12.47;;;5.10;99.90;;;;;;4996196;28;20403;-63
2023/03/06 07:18:36;;;;;;;17.10;12.57;;;5.10;99.90;;;;;;4995881;28;20175;-64
2023/03/06 07:21:02;;;;;;;19.70;13.83;;;5.10;99.90;;;;;;4996040;28;20229;-64
2023/03/06 07:23:30;;;;;;;20.27;14.07;;;5.10;99.90;;;;;;4995191;28;20192;-64
2023/03/06 07:25:56;;;;;;;21.17;14.17;;;5.10;99.90;;;;;;4995499;28;20188;-64
2023/03/06 07:28:25;;;;;;;21.87;14.10;;;5.10;99.90;;;;;;4996398;28;20207;-63
2023/03/06 07:30:51;;;;;;;18.77;13.10;;;5.10;99.90;;;;;;4996107;28;20187;-63
2023/03/06 07:33:19;;;;;;;19.03;14.17;;;5.10;99.90;;;;;;4992990;28;20782;-63
2023/03/06 07:35:47;;;;;;;20.00;13.17;;;5.20;99.90;;;;;;4992367;28;20214;-64
2023/03/06 07:38:13;;;;;;;21.97;14.70;;;5.20;99.90;;;;;;4994607;28;20222;-65
2023/03/06 07:40:39;;;;;;;19.50;13.07;;;5.20;99.90;;;;;;4995592;28;20215;-64
2023/03/06 07:43:05;;;;;;;24.10;15.63;;;5.30;99.90;;;;;;4997318;28;20286;-63
2023/03/06 07:45:31;;;;;;;24.27;15.27;;;5.20;99.90;;;;;;4998936;28;20295;-64
2023/03/06 07:48:02;;;;;;;21.27;14.70;;;5.20;99.90;;;;;;4994231;28;20176;-63
2023/03/06 07:50:31;;;;;;;20.10;14.37;;;5.30;99.90;;;;;;4995084;28;20270;-63
2023/03/06 07:52:56;;;;;;;20.13;13.73;;;5.20;99.90;;;;;;4993512;28;20199;-63
2023/03/06 07:55:22;;;;;;;18.60;13.03;;;5.20;99.90;;;;;;4989433;28;20214;-65
2023/03/06 07:57:50;;;;;;;18.27;12.60;;;5.30;99.90;;;;;;4994941;28;20199;-64
2023/03/06 08:00:19;;;;;;;18.43;12.60;;;5.30;99.90;;;;;;5006950;28;20167;-64
2023/03/06 08:02:48;;;;;;;19.07;13.30;;;5.30;99.90;;;;;;4995124;28;20203;-64
2023/03/06 08:05:15;;;;;;;17.90;13.10;;;5.30;99.90;;;;;;5000925;28;20202;-64
2023/03/06 08:07:44;;;;;;;19.40;13.60;;;5.30;99.90;;;;;;5011394;28;20274;-63
2023/03/06 08:10:14;;;;;;;18.63;12.23;;;5.30;99.90;;;;;;4994702;28;20198;-63
2023/03/06 08:12:40;;;;;;;17.83;12.30;;;5.30;99.90;;;;;;4995619;28;20269;-63
2023/03/06 08:15:10;;;;;;;19.00;13.27;;;5.30;99.90;;;;;;5002875;28;20206;-64
2023/03/06 08:17:38;;;;;;;19.57;13.60;;;5.40;99.90;;;;;;5017182;28;20185;-64
2023/03/06 08:20:09;;;;;;;21.93;14.57;;;5.40;99.90;;;;;;5005335;28;20218;-64
2023/03/06 08:22:35;;;;;;;22.37;14.87;;;5.40;99.90;;;;;;4994614;28;20197;-63
2023/03/06 08:25:01;;;;;;;20.93;14.33;;;5.40;99.90;;;;;;4995324;28;20184;-64
2023/03/06 08:27:31;;;;;;;23.03;14.87;;;5.40;99.90;;;;;;4996520;28;20183;-64
2023/03/06 08:29:59;;;;;;;19.77;14.23;;;5.50;99.90;;;;;;4997097;28;20318;-64
2023/03/06 08:32:25;;;;;;;21.80;14.40;;;5.50;99.90;;;;;;4994906;28;20199;-64
2023/03/06 08:34:51;;;;;;;21.10;15.07;;;5.50;99.90;;;;;;4996620;28;20203;-64
2023/03/06 08:37:19;;;;;;;20.07;14.07;;;5.60;99.90;;;;;;4993964;28;20225;-64
2023/03/06 08:39:44;;;;;;;22.17;15.07;;;5.60;99.90;;;;;;4994195;28;20245;-64
2023/03/06 08:42:13;;;;;;;19.87;14.47;;;5.70;99.90;;;;;;4994163;28;20201;-64
2023/03/06 08:44:43;;;;;;;21.37;13.90;;;5.70;99.90;;;;;;4994409;28;20226;-65
2023/03/06 08:47:09;;;;;;;19.73;14.20;;;5.70;99.90;;;;;;4993002;28;20171;-65
2023/03/06 08:49:35;;;;;;;23.17;14.20;;;5.80;99.90;;;;;;4993755;28;20191;-64
2023/03/06 08:52:00;;;;;;;20.87;13.87;;;5.90;99.90;;;;;;4993716;28;20221;-64
2023/03/06 08:54:26;;;;;;;17.53;12.30;;;5.90;99.90;;;;;;4992474;28;20199;-65
2023/03/06 08:56:52;;;;;;;21.57;13.53;;;6.00;99.90;;;;;;4994253;28;20186;-65
2023/03/06 08:59:18;;;;;;;18.90;12.70;;;6.00;99.90;;;;;;4993505;28;20176;-65
2023/03/06 09:01:45;;;;;;;19.57;13.83;;;6.10;99.90;;;;;;4992588;28;20186;-64
2023/03/06 09:04:11;;;;;;;18.20;12.93;;;6.10;99.90;;;;;;4992030;28;20195;-64
2023/03/06 09:06:40;;;;;;;18.90;12.77;;;6.20;99.90;;;;;;4996633;28;20175;-64
2023/03/06 09:09:08;;;;;;;19.30;12.57;;;6.20;99.90;;;;;;4995735;28;20234;-63
2023/03/06 09:11:35;;;;;;;20.30;13.17;;;6.30;99.90;;;;;;4992310;28;20208;-64
2023/03/06 09:14:01;;;;;;;19.23;13.10;;;6.20;99.90;;;;;;4993837;28;20298;-64
2023/03/06 09:16:29;;;;;;;17.27;12.50;;;6.30;99.90;;;;;;4994049;28;20198;-64
2023/03/06 09:18:56;;;;;;;17.37;12.33;;;6.30;99.90;;;;;;4991994;28;20183;-64
2023/03/06 09:21:23;;;;;;;16.33;11.90;;;6.30;99.90;;;;;;4994664;28;20171;-63
2023/03/06 09:23:49;;;;;;;17.87;12.53;;;6.30;99.90;;;;;;4993689;28;20203;-64
2023/03/06 09:26:17;;;;;;;23.83;14.90;;;6.30;99.90;;;;;;4993550;28;20179;-65
2023/03/06 09:28:45;;;;;;;21.23;13.97;;;6.30;99.90;;;;;;4994173;28;20191;-64
2023/03/06 09:31:17;;;;;;;19.53;12.87;;;6.30;99.90;;;;;;4992977;28;20250;-63
2023/03/06 09:33:43;;;;;;;17.27;11.93;;;6.30;99.90;;;;;;4995500;28;20172;-63
2023/03/06 09:36:16;;;;;;;19.20;13.20;;;6.30;99.90;;;;;;4993441;28;20198;-64
2023/03/06 09:38:41;;;;;;;22.97;13.67;;;6.30;99.90;;;;;;4988712;28;20446;-63
2023/03/06 09:41:34;;;;;;;19.07;13.50;;;6.30;99.90;;;;;;4994686;28;20221;-64
2023/03/06 09:44:04;;;;;;;19.20;13.03;;;6.40;99.90;;;;;;4990089;28;20191;-63
2023/03/06 09:46:58;;;;;;;17.77;12.50;;;6.40;99.90;;;;;;4994004;28;20278;-64
2023/03/06 09:49:58;;;;;;;18.90;13.23;;;6.40;99.90;;;;;;5008537;28;20210;-65
2023/03/06 09:52:45;;;;;;;19.77;14.13;;;6.40;99.90;;;;;;4992411;28;20191;-63
2023/03/06 09:55:16;;;;;;;17.87;12.63;;;6.40;99.90;;;;;;4992206;28;20231;-65
2023/03/06 09:57:52;;;;;;;16.53;12.27;;;6.40;99.90;;;;;;5006865;28;20183;-66
2023/03/06 10:00:41;;;;;;;18.33;12.50;;;6.40;99.90;;;;;;4997755;28;20187;-63
2023/03/06 10:03:44;;;;;;;17.17;11.70;;;6.50;99.90;;;;;;4994995;28;20175;-63
2023/03/06 10:06:16;;;;;;;18.63;12.57;;;6.50;99.90;;;;;;5005951;28;20182;-64
2023/03/06 10:08:44;;;;;;;18.23;13.13;;;6.50;99.90;;;;;;5021354;28;20240;-64
2023/03/06 10:11:13;;;;;;;20.40;14.13;;;6.50;99.90;;;;;;5012051;28;20178;-64
2023/03/06 10:13:43;;;;;;;20.57;13.73;;;6.50;99.90;;;;;;4995088;28;20205;-64
2023/03/06 10:16:34;;;;;;;17.40;12.37;;;6.50;99.90;;;;;;5031595;28;20175;-62
2023/03/06 10:19:10;;;;;;;19.43;13.00;;;6.50;99.90;;;;;;5014916;28;20221;-65
2023/03/06 10:21:46;;;;;;;17.77;12.17;;;6.50;99.90;;;;;;5031250;28;20270;-63
2023/03/06 10:24:30;;;;;;;17.47;10.80;;;6.50;99.90;;;;;;5015062;28;20210;-64
2023/03/06 10:27:05;;;;;;;13.10;9.67;;;6.60;99.90;;;;;;5030434;28;20202;-64
2023/03/06 10:30:27;;;;;;;12.37;9.00;;;6.60;99.90;;;;;;5030982;28;20428;-64
2023/03/06 10:32:59;;;;;;;11.50;7.97;;;6.60;99.90;;;;;;4937408;29;20208;-66
2023/03/06 10:35:30;;;;;;;10.83;7.87;;;6.70;99.90;;;;;;4999095;28;20206;-65
2023/03/06 10:38:20;;;;;;;11.93;8.90;;;6.70;99.90;;;;;;4991786;28;20259;-65
2023/03/06 10:41:00;;;;;;;12.47;9.07;;;6.80;99.90;;;;;;5004173;28;20210;-65
2023/03/06 10:43:26;;;;;;;13.13;9.40;;;6.80;99.90;;;;;;4990593;28;20196;-63
2023/03/06 10:45:52;;;;;;;13.57;9.40;;;6.90;99.90;;;;;;4990663;28;20237;-64
2023/03/06 10:48:24;;;;;;;12.97;9.83;;;7.00;99.90;;;;;;4989987;28;20207;-65
2023/03/06 10:50:53;;;;;;;12.73;9.40;;;7.00;99.90;;;;;;4996063;28;20195;-65
2023/03/06 10:53:30;;;;;;;12.83;9.13;;;7.00;99.90;;;;;;4993013;28;20210;-63
2023/03/06 10:55:59;;;;;;;13.47;9.37;;;7.00;99.90;;;;;;5007165;28;20195;-63
2023/03/06 10:58:26;;;;;;;12.73;9.33;;;7.00;99.90;;;;;;4995389;28;20274;-64
2023/03/06 11:01:07;;;;;;;13.33;9.50;;;7.10;99.90;;;;;;4995678;28;20176;-64
2023/03/06 11:03:35;;;;;;;15.00;10.83;;;7.10;99.90;;;;;;4994386;28;20180;-64
2023/03/06 11:06:08;;;;;;;17.93;11.70;;;7.10;99.90;;;;;;4993705;28;20188;-64
2023/03/06 11:08:34;;;;;;;16.73;11.80;;;7.10;99.90;;;;;;4996950;28;20210;-64
2023/03/06 11:11:06;;;;;;;15.37;10.90;;;7.10;99.90;;;;;;4996133;28;20207;-63
2023/03/06 11:13:39;;;;;;;13.70;9.90;;;7.10;99.90;;;;;;4995483;28;20183;-65
2023/03/06 11:16:15;;;;;;;13.87;10.30;;;7.00;99.90;;;;;;4994553;28;20236;-63
2023/03/06 11:18:53;;;;;;;13.37;9.97;;;7.00;99.90;;;;;;4995721;28;20186;-65
2023/03/06 11:21:36;;;;;;;14.83;10.60;;;7.10;99.90;;;;;;4995748;28;20171;-64
2023/03/06 11:24:09;;;;;;;15.20;10.53;;;7.10;99.90;;;;;;4995328;28;20252;-64
2023/03/06 11:26:45;;;;;;;15.87;11.17;;;7.20;99.90;;;;;;4993844;28;20179;-64
2023/03/06 11:29:29;;;;;;;13.40;9.97;;;7.20;99.90;;;;;;5008027;28;20179;-64
2023/03/06 11:32:03;;;;;;;14.43;10.03;;;7.30;99.90;;;;;;4994288;28;20172;-65
2023/03/06 11:34:53;;;;;;;16.40;10.60;;;7.40;99.90;;;;;;4993218;28;20210;-63
2023/03/06 11:37:30;;;;;;;14.13;10.80;;;7.50;99.90;;;;;;4993285;28;20278;-65
2023/03/06 11:40:41;;;;;;;12.47;9.07;;;7.50;99.90;;;;;;4993574;28;20175;-65
2023/03/06 11:43:22;;;;;;;13.83;9.77;;;7.50;99.90;;;;;;4958384;28;20196;-65
2023/03/06 11:45:54;;;;;;;13.10;9.77;;;7.60;99.90;;;;;;4990172;28;20270;-64
2023/03/06 11:48:22;;;;;;;15.63;9.50;;;7.60;99.90;;;;;;4994060;28;20342;-64
2023/03/06 11:50:51;;;;;;;13.03;9.60;;;7.60;99.90;;;;;;4994035;28;20190;-64
2023/03/06 11:53:36;;;;;;;14.03;9.57;;;7.60;99.90;;;;;;4994858;28;20261;-64
2023/03/06 11:56:23;;;;;;;13.00;9.90;;;7.70;99.90;;;;;;4993688;28;20348;-63
2023/03/06 11:59:05;;;;;;;12.90;9.63;;;7.60;99.90;;;;;;4989622;28;20175;-64
2023/03/06 12:01:48;;;;;;;13.27;9.37;;;7.70;99.90;;;;;;4993547;28;20297;-64
2023/03/06 12:04:32;;;;;;;10.87;7.87;;;7.70;99.90;;;;;;5008752;28;20176;-63
2023/03/06 12:07:09;;;;;;;11.80;8.77;;;7.70;99.90;;;;;;4994961;28;20176;-64
2023/03/06 12:09:50;;;;;;;11.23;8.20;;;7.80;99.90;;;;;;5001841;28;20239;-64
2023/03/06 12:12:28;;;;;;;9.40;7.23;;;7.80;99.90;;;;;;4993050;28;20283;-64
2023/03/06 12:15:34;;;;;;;10.60;7.80;;;7.90;99.90;;;;;;4996490;28;20226;-75
2023/03/06 12:18:17;;;;;;;12.07;8.50;;;8.00;99.90;;;;;;4996401;28;20201;-76
2023/03/06 12:20:44;;;;;;;11.10;8.37;;;8.00;99.90;;;;;;4997080;28;20276;-75
2023/03/06 12:23:41;;;;;;;12.13;8.50;;;8.00;99.90;;;;;;4996741;28;20387;-71
2023/03/06 12:26:34;;;;;;;11.60;7.83;;;8.00;99.90;;;;;;4993348;28;20180;-74
2023/03/06 12:29:21;;;;;;;9.60;7.90;;;8.00;99.90;;;;;;4993732;28;20160;-74
2023/03/06 12:32:05;;;;;;;10.87;8.03;;;8.00;99.90;;;;;;4997131;28;20179;-74
2023/03/06 12:34:55;;;;;;;10.57;8.40;;;8.00;99.90;;;;;;4996602;28;20233;-75
2023/03/06 12:37:29;;;;;;;10.70;8.03;;;7.90;99.90;;;;;;4994136;28;20183;-65
2023/03/06 12:40:26;;;;;;;12.70;8.80;;;7.90;99.90;;;;;;4992762;28;20377;-75
2023/03/06 12:43:17;;;;;;;12.63;8.60;;;7.90;99.90;;;;;;4991911;28;20230;-75
2023/03/06 12:45:44;;;;;;;12.03;8.50;;;7.90;99.90;;;;;;4989956;28;20188;-74
2023/03/06 12:48:19;;;;;;;10.23;7.87;;;7.90;99.90;;;;;;4992734;28;20179;-75
2023/03/06 12:50:48;;;;;;;12.60;8.53;;;7.80;99.90;;;;;;4985865;28;20199;-73
2023/03/06 12:53:34;;;;;;;11.07;8.33;;;7.80;99.90;;;;;;4994132;28;20210;-75
2023/03/06 12:56:02;;;;;;;12.87;8.27;;;7.70;99.90;;;;;;4987552;28;20254;-74
2023/03/06 12:58:30;;;;;;;10.73;8.17;;;7.80;99.90;;;;;;5003706;28;20226;-76
2023/03/06 13:01:35;;;;;;;10.53;7.90;;;7.80;99.90;;;;;;4994138;28;20182;-77
2023/03/06 13:04:32;;;;;;;13.50;8.77;;;7.80;99.90;;;;;;4992504;28;20171;-74